Time;durP1;ratioP1;P1;durP2;ratioP2;P2;SDS_P1;SDS_P2;PMS_P1;PMS_P2;Temp;Humidity;BMP_temperature;BMP_pressure;BME280_temperature;BME280_humidity;BME280_pressure;Samples;Min_cycle;Max_cycle;Signal;HPM_P1;HPM_P2
2023/09/07 00:01:20;;;;;;;6.30;5.83;;;;;;;17.78;69.74;98251.50;5004029;28;20611;-79
2023/09/07 00:03:47;;;;;;;5.40;5.00;;;;;;;17.84;70.06;98247.81;5008927;28;20469;-79
2023/09/07 00:06:14;;;;;;;6.10;5.60;;;;;;;17.93;69.75;98240.84;5009807;28;20512;-79
2023/09/07 00:08:40;;;;;;;5.50;5.10;;;;;;;17.76;70.52;98256.41;5008390;28;20529;-79
2023/09/07 00:11:09;;;;;;;5.63;5.13;;;;;;;17.93;69.97;98251.78;5009284;28;20489;-79
2023/09/07 00:13:36;;;;;;;5.00;4.60;;;;;;;17.89;70.18;98264.31;5003968;28;20453;-79
2023/09/07 00:16:03;;;;;;;5.33;4.87;;;;;;;17.89;69.81;98250.63;5005604;28;20554;-79
2023/09/07 00:18:32;;;;;;;5.93;5.17;;;;;;;17.97;69.64;98246.66;5008676;28;20560;-79
2023/09/07 00:23:34;;;;;;;5.67;5.17;;;;;;;17.83;69.93;98246.13;5359539;23;21047;-80
2023/09/07 00:26:01;;;;;;;5.80;5.30;;;;;;;17.88;69.94;98254.44;5031333;28;20557;-80
2023/09/07 00:28:27;;;;;;;5.50;5.00;;;;;;;17.89;69.76;98256.09;5037222;28;20525;-81
2023/09/07 00:30:54;;;;;;;6.10;5.60;;;;;;;17.84;69.99;98252.44;5036920;28;20466;-80
2023/09/07 00:33:21;;;;;;;5.83;5.33;;;;;;;17.78;70.03;98244.13;5044885;28;20507;-81
2023/09/07 00:35:49;;;;;;;5.53;5.03;;;;;;;17.83;69.99;98240.66;5043097;28;21045;-80
2023/09/07 00:38:16;;;;;;;5.43;5.03;;;;;;;17.71;70.55;98234.38;5039748;28;20483;-80
2023/09/07 00:40:43;;;;;;;5.83;5.37;;;;;;;17.73;70.77;98248.66;5042856;28;20463;-81
2023/09/07 00:43:10;;;;;;;6.50;5.53;;;;;;;17.68;70.79;98248.56;5044141;28;20474;-80
2023/09/07 00:45:37;;;;;;;5.40;4.90;;;;;;;17.53;71.52;98253.69;5040291;28;21028;-80
2023/09/07 00:48:05;;;;;;;5.57;5.17;;;;;;;17.52;71.10;98230.13;5040872;28;20554;-80
2023/09/07 00:50:32;;;;;;;5.80;5.40;;;;;;;17.62;70.87;98244.00;5040398;28;20925;-80
2023/09/07 00:53:02;;;;;;;4.97;4.60;;;;;;;17.69;70.27;98244.75;5040647;28;21006;-80
2023/09/07 00:55:32;;;;;;;4.83;4.40;;;;;;;17.69;69.74;98244.75;5039379;28;20551;-81
2023/09/07 00:58:00;;;;;;;5.03;4.73;;;;;;;17.70;69.16;98252.72;5040179;28;20459;-81
2023/09/07 01:00:27;;;;;;;5.10;4.70;;;;;;;17.73;69.22;98252.22;5046007;28;20954;-80
2023/09/07 01:02:55;;;;;;;4.10;3.80;;;;;;;17.75;67.86;98249.25;5041440;28;20923;-80
2023/09/07 01:05:27;;;;;;;4.53;4.23;;;;;;;17.71;67.58;98248.91;5037759;28;20451;-80
2023/09/07 01:07:56;;;;;;;3.90;3.60;;;;;;;17.74;67.10;98253.91;5038212;28;20823;-80
2023/09/07 01:10:24;;;;;;;4.23;3.93;;;;;;;17.61;67.80;98250.56;5045059;28;20542;-80
2023/09/07 01:12:50;;;;;;;4.70;4.33;;;;;;;17.43;68.10;98218.72;5042197;28;20533;-81
2023/09/07 01:15:18;;;;;;;4.10;3.80;;;;;;;17.61;68.57;98242.34;5047043;28;20542;-81
2023/09/07 01:17:45;;;;;;;5.00;4.60;;;;;;;17.50;69.41;98246.81;5039779;28;20451;-81
2023/09/07 01:20:16;;;;;;;5.10;4.67;;;;;;;17.48;69.89;98248.13;5041039;28;20944;-81
2023/09/07 01:22:45;;;;;;;5.20;4.43;;;;;;;17.39;70.40;98247.66;5040963;28;20488;-80
2023/09/07 01:25:12;;;;;;;6.00;5.40;;;;;;;17.21;71.56;98250.53;5035096;28;20468;-80
2023/09/07 01:27:39;;;;;;;5.80;5.37;;;;;;;17.08;72.50;98244.22;5034908;28;20493;-81
2023/09/07 01:30:09;;;;;;;6.37;5.47;;;;;;;16.94;72.93;98237.34;5037932;28;20985;-80
2023/09/07 01:32:36;;;;;;;6.00;5.50;;;;;;;16.79;73.93;98245.19;5045564;28;21050;-80
2023/09/07 01:35:06;;;;;;;5.70;5.20;;;;;;;16.62;74.69;98245.00;5041307;28;20455;-80
2023/09/07 01:37:33;;;;;;;5.87;5.27;;;;;;;16.53;75.08;98234.69;5041721;28;20462;-80
2023/09/07 01:40:03;;;;;;;6.13;5.53;;;;;;;16.41;75.70;98240.13;5042838;28;20505;-80
2023/09/07 01:42:30;;;;;;;6.10;5.50;;;;;;;16.28;76.36;98237.56;5045791;28;20475;-81
2023/09/07 01:44:57;;;;;;;6.00;5.50;;;;;;;16.22;76.79;98241.28;5033605;28;20464;-81
2023/09/07 01:47:24;;;;;;;5.67;5.23;;;;;;;15.95;77.48;98227.97;5037340;28;20509;-80
2023/09/07 01:49:51;;;;;;;4.80;4.40;;;;;;;16.09;76.98;98229.47;5041488;28;20514;-80
2023/09/07 01:52:18;;;;;;;5.83;5.33;;;;;;;16.13;76.85;98244.31;5039430;28;20574;-80
2023/09/07 01:54:44;;;;;;;6.07;5.57;;;;;;;16.17;76.63;98241.13;5040699;28;20463;-81
2023/09/07 01:57:12;;;;;;;6.20;5.70;;;;;;;15.98;77.62;98248.53;5043946;28;20530;-80
2023/09/07 01:59:39;;;;;;;5.80;5.30;;;;;;;15.84;78.14;98256.09;5042138;28;20459;-81
2023/09/07 02:02:06;;;;;;;6.00;5.60;;;;;;;15.88;78.00;98246.38;5039412;28;21061;-81
2023/09/07 02:04:33;;;;;;;6.30;5.80;;;;;;;15.70;78.79;98251.84;5040543;28;20534;-81
2023/09/07 02:07:00;;;;;;;5.10;4.70;;;;;;;15.59;78.94;98255.38;5041621;28;20456;-81
2023/09/07 02:09:26;;;;;;;6.93;5.50;;;;;;;15.67;78.81;98253.13;5039786;28;20961;-81
2023/09/07 02:11:53;;;;;;;7.23;5.30;;;;;;;15.46;79.60;98257.16;5045236;28;20607;-81
2023/09/07 02:14:21;;;;;;;5.87;5.40;;;;;;;15.41;79.81;98259.72;5045997;28;20451;-81
2023/09/07 02:16:48;;;;;;;6.17;5.57;;;;;;;15.29;80.63;98256.06;5044046;28;20528;-80
2023/09/07 02:19:15;;;;;;;6.27;5.77;;;;;;;15.35;80.63;98260.63;5039737;28;20458;-80
2023/09/07 02:21:42;;;;;;;7.00;6.50;;;;;;;15.39;80.32;98250.94;5040247;28;20479;-80
2023/09/07 02:24:08;;;;;;;6.57;6.07;;;;;;;15.25;81.01;98248.59;5044783;28;20483;-81
2023/09/07 02:26:35;;;;;;;6.70;6.10;;;;;;;15.20;81.67;98252.00;5047069;28;21032;-80
2023/09/07 02:29:05;;;;;;;6.73;6.13;;;;;;;15.12;81.87;98255.03;5040564;28;21002;-81
2023/09/07 02:31:33;;;;;;;6.70;6.20;;;;;;;15.02;82.41;98254.69;5035459;28;20459;-81
2023/09/07 02:33:59;;;;;;;7.57;6.87;;;;;;;15.11;82.22;98253.34;5045533;28;20460;-81
2023/09/07 02:36:26;;;;;;;7.23;6.63;;;;;;;15.02;82.52;98246.53;5044862;28;21050;-81
2023/09/07 02:38:53;;;;;;;6.73;6.23;;;;;;;14.95;82.73;98253.94;5038517;28;20491;-81
2023/09/07 02:41:20;;;;;;;6.50;6.00;;;;;;;14.84;83.11;98246.50;5046214;28;20466;-80
2023/09/07 02:43:47;;;;;;;6.50;6.00;;;;;;;14.81;82.86;98249.69;5048909;28;20450;-81
2023/09/07 02:46:13;;;;;;;6.37;5.77;;;;;;;15.01;82.09;98245.69;5041525;28;20539;-80
2023/09/07 02:48:41;;;;;;;7.40;6.80;;;;;;;14.99;82.08;98244.25;5041276;28;20456;-80
2023/09/07 02:51:08;;;;;;;5.73;5.33;;;;;;;15.15;81.36;98243.66;5049867;28;20467;-80
2023/09/07 02:53:35;;;;;;;8.33;6.23;;;;;;;15.01;81.74;98247.59;5049372;28;20485;-80
2023/09/07 02:56:04;;;;;;;6.97;6.47;;;;;;;14.95;82.09;98246.59;5038830;28;20463;-80
2023/09/07 02:58:31;;;;;;;7.30;6.70;;;;;;;15.07;81.72;98252.13;5035059;28;20880;-80
2023/09/07 03:00:58;;;;;;;7.27;6.67;;;;;;;15.06;82.24;98248.56;5045737;28;20511;-81
2023/09/07 03:03:24;;;;;;;9.23;8.33;;;;;;;15.01;82.88;98248.41;5042066;28;20514;-80
2023/09/07 03:05:53;;;;;;;9.37;8.57;;;;;;;15.03;83.12;98245.47;5040177;28;20488;-80
2023/09/07 03:08:19;;;;;;;8.73;7.93;;;;;;;15.03;83.13;98229.94;5041983;28;20807;-81
2023/09/07 03:10:46;;;;;;;7.73;6.90;;;;;;;15.12;82.29;98244.97;5044533;28;20487;-81
2023/09/07 03:13:13;;;;;;;7.87;7.27;;;;;;;15.16;81.82;98239.88;5041321;28;20478;-81
2023/09/07 03:15:40;;;;;;;8.87;8.07;;;;;;;14.93;82.96;98235.09;5043463;28;20463;-81
2023/09/07 03:18:07;;;;;;;9.93;9.03;;;;;;;15.17;82.18;98232.53;5042257;28;20465;-81
2023/09/07 03:20:34;;;;;;;9.43;8.53;;;;;;;15.16;81.93;98234.44;5047392;28;20455;-81
2023/09/07 03:23:03;;;;;;;8.10;7.50;;;;;;;14.99;82.34;98233.34;5045823;28;20526;-81
2023/09/07 03:25:30;;;;;;;8.90;8.20;;;;;;;14.85;83.15;98234.56;5045581;28;20509;-80
2023/09/07 03:27:57;;;;;;;8.67;7.97;;;;;;;14.67;83.60;98236.16;5037700;28;20514;-81
2023/09/07 03:30:24;;;;;;;7.70;6.90;;;;;;;14.51;84.17;98228.56;5029601;28;21047;-81
2023/09/07 03:32:50;;;;;;;8.10;7.30;;;;;;;14.61;83.99;98228.91;5028557;28;20532;-81
2023/09/07 03:35:17;;;;;;;9.03;8.13;;;;;;;14.56;84.42;98228.75;5029955;28;20975;-81
2023/09/07 03:37:44;;;;;;;11.00;9.90;;;;;;;14.74;83.80;98231.50;5034917;28;21283;-81
2023/09/07 03:40:12;;;;;;;11.80;10.30;;;;;;;14.77;83.92;98233.78;5032013;28;20488;-80
2023/09/07 03:42:39;;;;;;;12.50;9.80;;;;;;;14.83;83.97;98223.88;5023101;28;20564;-81
2023/09/07 03:45:07;;;;;;;9.57;8.60;;;;;;;14.76;83.90;98229.38;5025256;28;20456;-81
2023/09/07 03:47:33;;;;;;;10.57;9.53;;;;;;;14.81;84.19;98223.25;5023031;28;20525;-80
2023/09/07 03:50:01;;;;;;;10.00;9.10;;;;;;;14.79;84.67;98223.50;5023291;28;20687;-81
2023/09/07 03:52:27;;;;;;;10.97;10.07;;;;;;;14.82;84.60;98224.09;5023293;28;20468;-80
2023/09/07 03:54:54;;;;;;;10.00;9.20;;;;;;;14.76;84.80;98226.66;5025067;28;20466;-80
2023/09/07 03:57:23;;;;;;;9.90;9.00;;;;;;;14.70;85.26;98234.88;5027261;28;20460;-80
2023/09/07 03:59:50;;;;;;;9.80;8.80;;;;;;;14.83;84.70;98228.50;5023991;28;20540;-81
2023/09/07 04:02:17;;;;;;;10.23;9.03;;;;;;;14.69;84.83;98227.78;5021272;28;20535;-81
2023/09/07 04:04:49;;;;;;;10.20;9.30;;;;;;;14.78;84.80;98232.72;5024351;28;21355;-81
2023/09/07 04:07:16;;;;;;;10.57;9.70;;;;;;;14.60;85.40;98231.84;5022765;28;20506;-81
2023/09/07 04:09:43;;;;;;;10.73;9.73;;;;;;;14.61;85.05;98228.06;5023507;28;20484;-81
2023/09/07 04:12:10;;;;;;;9.63;8.83;;;;;;;14.58;85.15;98221.19;5025609;28;20485;-81
2023/09/07 04:14:38;;;;;;;10.80;9.70;;;;;;;14.51;85.18;98225.84;5025623;28;20448;-81
2023/09/07 04:17:05;;;;;;;9.87;9.00;;;;;;;14.53;85.07;98226.47;5030390;28;20567;-78
2023/09/07 04:19:32;;;;;;;11.00;9.90;;;;;;;14.51;85.56;98225.84;5027800;28;21243;-80
2023/09/07 04:21:59;;;;;;;9.50;8.70;;;;;;;14.38;85.84;98223.19;5018516;28;20503;-80
2023/09/07 04:24:27;;;;;;;10.83;9.73;;;;;;;14.24;86.41;98233.38;5033311;28;20458;-81
2023/09/07 04:26:54;;;;;;;10.10;9.20;;;;;;;14.12;87.16;98233.22;5033860;28;20462;-81
2023/09/07 04:29:21;;;;;;;11.73;10.70;;;;;;;14.16;87.22;98228.19;5041353;28;20464;-81
2023/09/07 04:31:49;;;;;;;11.20;10.30;;;;;;;14.14;87.30;98233.00;5040609;28;20537;-81
2023/09/07 04:34:16;;;;;;;10.50;9.50;;;;;;;14.20;87.20;98237.59;5038618;28;20457;-81
2023/09/07 04:36:42;;;;;;;9.13;8.33;;;;;;;14.16;86.86;98232.78;5038240;28;20447;-81
2023/09/07 04:39:10;;;;;;;8.90;8.20;;;;;;;14.02;87.35;98232.03;5031686;28;20460;-81
2023/09/07 04:41:37;;;;;;;9.60;8.70;;;;;;;14.07;86.76;98224.06;5039293;28;20489;-80
2023/09/07 04:44:04;;;;;;;8.33;7.53;;;;;;;14.11;86.44;98228.84;5017063;28;21428;-79
2023/09/07 04:46:31;;;;;;;8.00;7.30;;;;;;;14.33;85.61;98236.63;5029995;28;20899;-81
2023/09/07 04:48:59;;;;;;;7.60;6.90;;;;;;;14.26;85.58;98236.72;5040000;28;20554;-80
2023/09/07 04:51:26;;;;;;;7.90;7.20;;;;;;;14.18;85.60;98242.41;5046635;28;20506;-80
2023/09/07 04:53:53;;;;;;;8.00;7.30;;;;;;;14.05;86.13;98237.03;5046065;28;21051;-83
2023/09/07 04:56:21;;;;;;;7.90;7.20;;;;;;;14.12;85.90;98243.28;5041259;28;20838;-81
2023/09/07 04:58:48;;;;;;;7.33;6.73;;;;;;;14.22;85.46;98253.69;5039138;28;20462;-80
2023/09/07 05:01:15;;;;;;;7.50;6.90;;;;;;;14.25;85.16;98243.22;5038516;28;20493;-82
2023/09/07 05:03:42;;;;;;;8.10;7.50;;;;;;;14.05;86.07;98243.31;5047404;28;20451;-84
2023/09/07 05:06:12;;;;;;;7.50;6.90;;;;;;;14.07;85.70;98243.94;5039108;28;20455;-85
2023/09/07 05:08:39;;;;;;;8.03;7.43;;;;;;;14.07;85.51;98227.63;5037228;28;20526;-81
2023/09/07 05:11:06;;;;;;;8.00;7.30;;;;;;;14.30;85.39;98250.69;5042162;28;20922;-82
2023/09/07 05:13:33;;;;;;;8.40;7.73;;;;;;;14.27;85.52;98256.59;5038662;28;20461;-82
2023/09/07 05:16:00;;;;;;;9.20;8.40;;;;;;;14.29;85.42;98259.94;5031768;28;20451;-82
2023/09/07 05:18:27;;;;;;;8.80;8.10;;;;;;;14.39;84.89;98254.81;5044633;28;20551;-82
2023/09/07 05:20:54;;;;;;;9.27;8.50;;;;;;;14.42;85.59;98257.13;5040724;28;21234;-81
2023/09/07 05:23:24;;;;;;;9.77;8.93;;;;;;;14.60;85.00;98250.94;5029198;28;21067;-81
2023/09/07 05:25:52;;;;;;;10.67;9.70;;;;;;;14.60;85.25;98257.22;5030713;28;20467;-80
2023/09/07 05:28:20;;;;;;;11.13;10.23;;;;;;;14.50;86.08;98262.31;5029067;28;20470;-77
2023/09/07 05:30:47;;;;;;;9.43;8.53;;;;;;;14.69;85.37;98261.31;5032031;28;20511;-81
2023/09/07 05:33:15;;;;;;;12.23;11.03;;;;;;;14.74;85.27;98272.38;5035988;28;20454;-81
2023/09/07 05:35:42;;;;;;;10.77;9.77;;;;;;;14.79;85.46;98269.81;5032116;28;20466;-82
2023/09/07 05:38:10;;;;;;;11.97;10.87;;;;;;;15.02;84.81;98273.78;5029073;28;20471;-81
2023/09/07 05:40:39;;;;;;;12.07;10.90;;;;;;;15.09;84.50;98280.00;5034630;28;20943;-81
2023/09/07 05:43:06;;;;;;;11.43;10.53;;;;;;;15.31;83.49;98277.66;5016787;28;20464;-81
2023/09/07 05:45:36;;;;;;;10.90;10.00;;;;;;;15.35;82.86;98265.25;5039287;28;20533;-81
2023/09/07 05:48:03;;;;;;;10.10;9.20;;;;;;;15.55;82.32;98275.94;5029398;28;20482;-81
2023/09/07 05:50:30;;;;;;;10.77;9.87;;;;;;;15.50;82.00;98267.63;5022681;28;20580;-79
2023/09/07 05:52:57;;;;;;;9.17;8.47;;;;;;;15.47;81.11;98252.53;5029364;28;20467;-81
2023/09/07 05:55:24;;;;;;;10.63;9.50;;;;;;;15.68;80.92;98264.88;5038517;28;20538;-75
2023/09/07 05:57:55;;;;;;;8.67;7.87;;;;;;;15.79;79.57;98266.84;5033323;28;20448;-81
2023/09/07 06:00:22;;;;;;;8.17;7.47;;;;;;;15.92;79.31;98272.13;5034996;28;20478;-76
2023/09/07 06:02:49;;;;;;;9.83;8.83;;;;;;;16.12;78.30;98269.97;5040070;28;21263;-76
2023/09/07 06:05:16;;;;;;;8.00;7.30;;;;;;;16.52;76.90;98274.00;5042532;28;20451;-75
2023/09/07 06:07:42;;;;;;;7.93;7.33;;;;;;;17.01;74.77;98273.59;5044365;28;20951;-75
2023/09/07 06:10:10;;;;;;;7.00;6.43;;;;;;;17.77;70.95;98267.09;5038337;28;20485;-74
2023/09/07 06:12:37;;;;;;;7.53;6.90;;;;;;;18.36;68.79;98277.81;5050432;28;20509;-75
2023/09/07 06:15:06;;;;;;;8.10;7.50;;;;;;;18.63;67.55;98273.41;5032875;28;20450;-73
2023/09/07 06:17:33;;;;;;;6.37;5.80;;;;;;;18.95;65.61;98270.91;5022696;28;22119;-74
2023/09/07 06:19:59;;;;;;;6.23;5.73;;;;;;;19.64;63.54;98267.81;5034441;28;20978;-74
2023/09/07 06:22:26;;;;;;;6.30;5.70;;;;;;;20.25;60.99;98260.28;5035377;28;20565;-74
2023/09/07 06:24:53;;;;;;;5.63;5.20;;;;;;;20.14;60.49;98271.16;5028082;28;20597;-73
2023/09/07 06:27:20;;;;;;;6.47;5.87;;;;;;;20.53;59.19;98270.19;5016990;28;20488;-75
2023/09/07 06:29:48;;;;;;;5.40;4.93;;;;;;;20.45;59.42;98266.03;5036499;28;21028;-73
2023/09/07 06:32:16;;;;;;;5.53;5.10;;;;;;;20.95;58.22;98267.53;5042205;28;20677;-75
2023/09/07 06:34:43;;;;;;;4.93;4.53;;;;;;;20.89;58.11;98268.59;5033401;28;20572;-75
2023/09/07 06:37:10;;;;;;;5.30;4.90;;;;;;;21.86;54.96;98267.28;5039051;28;21027;-75
2023/09/07 06:39:37;;;;;;;5.40;4.93;;;;;;;21.88;55.19;98271.44;5032102;28;20545;-75
2023/09/07 06:42:05;;;;;;;5.83;5.27;;;;;;;21.90;54.54;98266.47;5030550;28;20558;-74
2023/09/07 06:44:31;;;;;;;5.73;5.13;;;;;;;22.04;55.02;98262.16;5026335;28;20997;-75
2023/09/07 06:46:58;;;;;;;5.40;4.90;;;;;;;21.88;55.21;98246.63;5030783;28;20464;-75
2023/09/07 06:49:29;;;;;;;6.07;5.57;;;;;;;22.09;54.82;98267.66;5025008;28;20546;-75
2023/09/07 06:51:56;;;;;;;4.93;4.60;;;;;;;22.29;54.02;98263.31;5036985;28;20503;-75
2023/09/07 06:54:23;;;;;;;4.97;4.57;;;;;;;23.01;52.62;98265.09;5036288;28;20507;-75
2023/09/07 06:56:50;;;;;;;5.73;5.23;;;;;;;23.51;50.72;98271.63;5039238;28;20550;-75
2023/09/07 06:59:16;;;;;;;4.90;4.60;;;;;;;23.76;50.59;98274.31;5039083;28;20459;-79
2023/09/07 07:01:43;;;;;;;6.10;5.30;;;;;;;23.82;49.79;98272.38;5039853;28;20569;-79
2023/09/07 07:04:10;;;;;;;5.50;4.90;;;;;;;23.77;49.94;98287.03;5035716;28;20455;-79
2023/09/07 07:06:39;;;;;;;5.20;4.90;;;;;;;23.87;49.35;98281.50;5024840;28;20455;-79
2023/09/07 07:09:06;;;;;;;5.17;4.77;;;;;;;24.20;48.41;98276.38;5033553;28;20507;-78
2023/09/07 07:11:33;;;;;;;5.70;5.30;;;;;;;24.22;48.20;98276.91;5029322;28;20813;-82
2023/09/07 07:13:59;;;;;;;5.33;4.83;;;;;;;24.77;46.80;98284.88;5030332;28;20919;-78
2023/09/07 07:16:26;;;;;;;5.13;4.67;;;;;;;24.69;47.57;98293.00;5035575;28;20491;-79
2023/09/07 07:18:53;;;;;;;5.77;5.30;;;;;;;25.22;46.13;98293.97;5033276;28;20471;-80
2023/09/07 07:21:20;;;;;;;5.27;4.90;;;;;;;25.16;46.38;98289.59;5036602;28;20581;-76
2023/09/07 07:23:49;;;;;;;6.20;5.80;;;;;;;25.37;45.92;98291.03;5035230;28;20577;-79
2023/09/07 07:26:15;;;;;;;5.53;5.13;;;;;;;24.99;47.24;98290.03;5045370;28;20865;-78
2023/09/07 07:28:42;;;;;;;6.30;5.73;;;;;;;25.18;46.74;98286.53;5050307;28;20455;-78
2023/09/07 07:31:10;;;;;;;6.80;5.70;;;;;;;25.09;46.56;98291.84;5038999;28;20502;-80
2023/09/07 07:33:37;;;;;;;5.87;5.47;;;;;;;25.65;45.43;98283.06;5034293;28;20455;-78
2023/09/07 07:36:05;;;;;;;5.77;5.37;;;;;;;25.86;44.64;98290.00;5030463;28;20452;-78
2023/09/07 07:38:32;;;;;;;5.57;5.10;;;;;;;25.88;45.17;98282.22;5037038;28;21101;-78
2023/09/07 07:41:00;;;;;;;5.90;5.40;;;;;;;24.99;46.64;98286.44;5034629;28;20488;-78
2023/09/07 07:43:27;;;;;;;5.50;5.10;;;;;;;25.06;46.79;98282.19;5028808;28;21528;-78
2023/09/07 07:45:55;;;;;;;5.70;5.20;;;;;;;25.51;46.11;98287.59;5033981;28;20491;-78
2023/09/07 07:48:21;;;;;;;5.47;4.97;;;;;;;25.72;45.08;98283.50;5040602;28;20513;-78
2023/09/07 07:50:48;;;;;;;5.80;5.30;;;;;;;25.45;44.98;98281.28;5043643;28;20562;-78
2023/09/07 07:53:15;;;;;;;6.10;5.60;;;;;;;25.29;44.93;98286.16;5040815;28;20968;-80
2023/09/07 07:55:42;;;;;;;6.40;5.93;;;;;;;25.20;45.46;98287.06;5036900;28;20452;-79
2023/09/07 07:58:11;;;;;;;6.50;6.00;;;;;;;25.08;46.19;98287.44;5031110;28;20857;-79
2023/09/07 08:00:38;;;;;;;7.10;6.40;;;;;;;24.81;46.97;98292.63;5033678;28;20491;-81
2023/09/07 08:03:06;;;;;;;6.93;6.27;;;;;;;25.47;45.39;98275.44;5030335;28;21042;-80
2023/09/07 08:05:34;;;;;;;6.87;6.37;;;;;;;25.74;44.47;98278.50;5022904;28;20451;-79
2023/09/07 08:08:01;;;;;;;7.77;7.17;;;;;;;25.26;46.43;98283.13;5030727;28;20566;-79
2023/09/07 08:10:28;;;;;;;7.10;6.50;;;;;;;25.33;46.56;98269.78;5034941;28;21041;-79
2023/09/07 08:12:56;;;;;;;7.33;6.73;;;;;;;25.78;45.52;98282.31;5042907;28;20511;-79
2023/09/07 08:15:24;;;;;;;7.17;6.67;;;;;;;26.33;44.52;98277.22;5031681;28;20532;-79
2023/09/07 08:17:51;;;;;;;6.70;6.17;;;;;;;26.48;43.91;98276.19;5026052;28;20451;-79
2023/09/07 08:20:18;;;;;;;6.10;5.60;;;;;;;27.38;41.87;98271.09;5037437;28;20471;-79
2023/09/07 08:22:46;;;;;;;7.57;6.13;;;;;;;27.35;41.85;98266.16;5019418;28;20460;-80
2023/09/07 08:25:14;;;;;;;7.20;6.70;;;;;;;27.86;40.39;98270.78;5012055;28;20460;-80
2023/09/07 08:27:44;;;;;;;5.60;5.17;;;;;;;27.48;41.79;98263.72;5037249;28;20456;-80
2023/09/07 08:30:12;;;;;;;6.17;5.67;;;;;;;27.24;41.27;98270.25;5023836;28;20957;-79
2023/09/07 08:32:40;;;;;;;6.00;5.50;;;;;;;27.06;42.42;98265.56;5030892;28;20566;-80
2023/09/07 08:35:09;;;;;;;4.97;4.67;;;;;;;27.53;41.55;98272.78;5035292;28;20465;-80
2023/09/07 08:37:36;;;;;;;6.23;5.20;;;;;;;27.62;41.78;98292.38;5021603;28;20468;-80
2023/09/07 08:40:07;;;;;;;6.83;4.90;;;;;;;27.46;41.14;98271.53;5003676;28;20462;-80
2023/09/07 08:42:33;;;;;;;5.43;4.93;;;;;;;26.96;42.38;98277.69;5019098;28;20589;-79
2023/09/07 08:45:02;;;;;;;6.37;5.70;;;;;;;26.31;43.30;98273.94;5035252;28;20459;-79
2023/09/07 08:47:31;;;;;;;5.90;5.50;;;;;;;26.00;45.48;98279.81;5032685;28;21421;-80
2023/09/07 08:49:59;;;;;;;6.60;6.10;;;;;;;26.15;44.66;98278.00;5032929;28;20459;-79
2023/09/07 08:52:26;;;;;;;6.10;5.50;;;;;;;26.07;44.93;98274.75;5033311;28;20575;-80
2023/09/07 08:54:53;;;;;;;5.90;5.50;;;;;;;26.33;44.28;98268.88;5029439;28;20604;-79
2023/09/07 08:57:22;;;;;;;5.70;5.20;;;;;;;26.69;43.93;98264.47;5023204;28;20982;-80
2023/09/07 08:59:50;;;;;;;6.43;5.40;;;;;;;27.29;42.93;98278.50;5048093;28;20546;-79
2023/09/07 09:02:18;;;;;;;4.80;4.50;;;;;;;27.87;41.65;98275.22;5042656;28;20505;-79
2023/09/07 09:04:45;;;;;;;5.47;5.07;;;;;;;29.01;39.25;98276.03;5033097;28;20452;-80
2023/09/07 09:07:14;;;;;;;5.13;4.80;;;;;;;28.92;39.07;98275.16;5035512;28;20457;-80
2023/09/07 09:09:40;;;;;;;5.83;5.30;;;;;;;28.43;40.35;98277.66;5033362;28;20962;-80
2023/09/07 09:12:08;;;;;;;5.70;5.20;;;;;;;28.38;40.73;98282.50;5038322;28;20590;-80
2023/09/07 09:14:35;;;;;;;5.70;5.40;;;;;;;28.59;39.81;98277.31;5038552;28;20512;-79
2023/09/07 09:17:02;;;;;;;5.73;5.43;;;;;;;28.20;40.37;98281.50;5034856;28;20459;-80
2023/09/07 09:19:32;;;;;;;5.53;5.17;;;;;;;28.20;40.90;98269.53;5043383;28;20535;-78
2023/09/07 09:21:59;;;;;;;5.93;5.53;;;;;;;27.72;42.06;98275.50;5029686;28;20919;-80
2023/09/07 09:24:27;;;;;;;5.43;4.93;;;;;;;27.70;42.40;98269.44;5030769;28;20483;-80
2023/09/07 09:26:54;;;;;;;6.03;5.63;;;;;;;27.87;41.29;98260.47;5039652;28;20559;-80
2023/09/07 09:29:23;;;;;;;6.57;6.07;;;;;;;27.81;41.07;98268.09;5035269;28;20990;-80
2023/09/07 09:31:52;;;;;;;6.67;6.10;;;;;;;27.99;40.32;98263.56;5041274;28;20498;-80
2023/09/07 09:34:19;;;;;;;5.30;4.90;;;;;;;28.54;40.24;98258.75;5027645;28;20463;-80
2023/09/07 09:36:46;;;;;;;5.33;4.93;;;;;;;29.05;38.62;98261.16;5036764;28;20483;-80
2023/09/07 09:39:23;;;;;;;5.93;5.53;;;;;;;28.82;39.87;98267.06;5022320;28;20465;-81
2023/09/07 09:41:53;;;;;;;4.70;4.50;;;;;;;29.51;38.16;98271.16;5033858;28;20529;-80
2023/09/07 09:44:22;;;;;;;5.43;5.03;;;;;;;30.23;36.55;98265.19;5033085;28;20513;-79
2023/09/07 09:46:50;;;;;;;5.90;5.50;;;;;;;30.24;36.36;98254.84;5029002;28;20450;-80
2023/09/07 09:49:17;;;;;;;5.67;5.20;;;;;;;30.28;36.47;98262.25;5033590;28;20506;-78
2023/09/07 09:51:46;;;;;;;5.43;5.03;;;;;;;30.94;34.41;98229.44;5030731;28;21075;-83
2023/09/07 09:54:13;;;;;;;4.90;4.60;;;;;;;31.44;34.05;98248.47;5030626;28;20506;-80
2023/09/07 09:56:40;;;;;;;5.60;4.67;;;;;;;32.41;32.95;98248.53;5009877;28;20551;-79
2023/09/07 09:59:08;;;;;;;6.93;5.10;;;;;;;31.78;33.37;98269.94;5041776;28;20546;-79
2023/09/07 10:01:41;;;;;;;6.00;5.43;;;;;;;31.82;33.26;98248.53;5031585;28;21179;-79
2023/09/07 10:04:09;;;;;;;4.90;4.50;;;;;;;32.47;32.70;98250.00;5033953;28;20535;-80
2023/09/07 10:06:36;;;;;;;4.70;4.30;;;;;;;32.69;32.00;98251.63;5034665;28;20556;-80
2023/09/07 10:09:06;;;;;;;4.80;4.50;;;;;;;33.15;31.84;98253.38;5036586;28;21100;-79
2023/09/07 10:11:34;;;;;;;4.77;4.47;;;;;;;33.29;30.83;98250.28;5033161;28;20495;-79
2023/09/07 10:14:03;;;;;;;5.03;4.73;;;;;;;32.72;31.19;98248.97;5029482;28;21044;-79
2023/09/07 10:16:41;;;;;;;5.23;4.83;;;;;;;31.63;33.69;98253.66;5039742;28;20451;-79
2023/09/07 10:19:15;;;;;;;4.50;4.10;;;;;;;32.37;32.75;98247.56;5016733;28;22059;-79
2023/09/07 10:21:42;;;;;;;4.67;4.37;;;;;;;33.10;31.05;98248.00;5035632;28;21047;-80
2023/09/07 10:24:09;;;;;;;5.27;4.90;;;;;;;33.97;29.78;98247.88;5023113;28;20462;-82
2023/09/07 10:26:36;;;;;;;5.30;4.90;;;;;;;34.01;29.89;98252.44;5034930;28;20460;-82
2023/09/07 10:29:05;;;;;;;5.57;5.07;;;;;;;33.99;29.18;98251.97;5035050;28;20530;-82
2023/09/07 10:31:33;;;;;;;4.80;4.50;;;;;;;32.72;31.29;98232.13;5037280;28;20478;-82
2023/09/07 10:34:10;;;;;;;4.90;4.50;;;;;;;33.29;31.09;98239.06;5043519;28;20520;-82
2023/09/07 10:36:38;;;;;;;5.10;4.80;;;;;;;33.45;30.30;98219.59;5041150;28;20484;-81
2023/09/07 10:39:05;;;;;;;6.03;5.43;;;;;;;33.05;31.09;98231.38;5027880;28;20467;-82
2023/09/07 10:41:41;;;;;;;5.10;4.70;;;;;;;33.22;30.48;98239.59;5029181;28;20484;-80
2023/09/07 10:44:10;;;;;;;4.90;4.60;;;;;;;32.70;31.27;98228.03;5033232;28;20475;-80
2023/09/07 10:46:39;;;;;;;4.83;4.43;;;;;;;32.73;31.08;98222.56;5038382;28;20439;-81
2023/09/07 10:49:08;;;;;;;5.00;4.63;;;;;;;32.42;31.89;98227.75;5033042;28;20448;-81
2023/09/07 10:51:41;;;;;;;5.17;4.87;;;;;;;31.93;32.64;98223.75;5038449;28;20491;-80
2023/09/07 10:54:15;;;;;;;4.70;4.40;;;;;;;32.39;32.49;98222.84;5035454;28;20456;-81
2023/09/07 10:56:44;;;;;;;4.80;4.50;;;;;;;32.59;32.56;98224.81;5031733;28;20816;-81
2023/09/07 10:59:11;;;;;;;4.97;4.57;;;;;;;33.02;31.72;98206.81;5029965;28;21072;-81
2023/09/07 11:01:39;;;;;;;5.93;4.90;;;;;;;33.63;30.65;98204.16;5035634;28;21053;-81
2023/09/07 11:04:08;;;;;;;4.70;4.37;;;;;;;33.85;30.63;98206.53;5028168;28;20551;-81
2023/09/07 11:06:35;;;;;;;5.00;4.60;;;;;;;33.46;30.13;98221.22;5034714;28;20448;-81
2023/09/07 11:09:04;;;;;;;4.40;4.00;;;;;;;34.21;29.92;98214.13;5042364;28;20814;-81
2023/09/07 11:11:33;;;;;;;4.27;3.97;;;;;;;33.86;30.18;98207.34;5043631;28;20588;-81
2023/09/07 11:13:59;;;;;;;5.70;5.17;;;;;;;33.63;30.34;98204.97;5036958;28;20452;-81
2023/09/07 11:16:27;;;;;;;4.77;4.20;;;;;;;33.58;30.38;98207.19;5033604;28;20488;-82
2023/09/07 11:18:55;;;;;;;5.40;4.50;;;;;;;32.16;33.05;98210.28;5042465;28;20448;-81
2023/09/07 11:21:22;;;;;;;4.70;4.30;;;;;;;32.24;32.57;98203.81;5034637;28;20532;-81
2023/09/07 11:23:49;;;;;;;4.70;4.30;;;;;;;32.90;31.38;98198.34;5031298;28;20572;-82
2023/09/07 11:26:17;;;;;;;4.83;4.53;;;;;;;33.01;31.50;98199.56;5028807;28;20489;-81
2023/09/07 11:28:46;;;;;;;5.33;4.50;;;;;;;33.47;31.27;98198.41;5022639;28;20530;-81
2023/09/07 11:31:13;;;;;;;4.50;4.20;;;;;;;33.44;30.90;98195.50;5025096;28;20478;-81
2023/09/07 11:33:41;;;;;;;5.30;4.90;;;;;;;33.85;31.47;98186.88;5020682;28;20489;-81
2023/09/07 11:36:10;;;;;;;4.17;3.93;;;;;;;33.19;30.81;98192.59;5039117;28;20557;-81